BAW7562 EGLL-RJTT
Flight info
| Callsign | BAW7562 |
|---|---|
| Flight time | N/A |
| Altitude | 34000 |
| Route | ULTIB T420 TNT UN57 POL UN601 RIBEL DCT LORTA DCT NALAN/M084F340 DCT 65N010W 74N020W 80N040W 82N060W/N0497F340 82N080W 82N100W 81N120W DCT OMEKA DCT JUJXI DCT MARCC R338 NATES/N0501F360 R220 NOGAL/N0489F370 R220 NUBDA/N0486F380 R220 NANAC Y810 AKRIT Y807 POLIX |
| Aircraft | A35K/H-SDE2E3GHIJ3J4J5LM1ORWXY/LB1D1 |
Departure
| Time | 2026-05-07 18:13 |
|---|---|
| Airport | London Heathrow Airport (EGLL) |
Arrival
| Time | N/A |
|---|---|
| Airport | Tokyo Haneda International Airport (RJTT) |
| Time | Latitude | Longitude | Altitude | Speed | Heading |
|---|---|---|---|---|---|
| 2026-05-07 17:07 | 51.47183 | -0.48234 | 95 ft | 0 kts | 89° |
| 2026-05-07 17:12 | 51.47183 | -0.48235 | 91 ft | 0 kts | 89° |
| 2026-05-07 17:35 | 51.47183 | -0.48236 | 91 ft | 0 kts | 89° |
| 2026-05-07 17:59 | 51.47183 | -0.48244 | 93 ft | 2 kts | 88° |
| 2026-05-07 17:59 | 51.47183 | -0.48270 | 91 ft | 2 kts | 92° |
| 2026-05-07 17:59 | 51.47183 | -0.48297 | 92 ft | 2 kts | 91° |
| 2026-05-07 17:59 | 51.47186 | -0.48323 | 91 ft | 2 kts | 120° |
| 2026-05-07 18:00 | 51.47197 | -0.48344 | 92 ft | 2 kts | 142° |
| 2026-05-07 18:00 | 51.47211 | -0.48357 | 92 ft | 2 kts | 166° |
| 2026-05-07 18:00 | 51.47228 | -0.48359 | 93 ft | 2 kts | 182° |
| 2026-05-07 18:00 | 51.47238 | -0.48358 | 94 ft | 0 kts | 180° |
| 2026-05-07 18:07 | 51.47230 | -0.48358 | 94 ft | 5 kts | 180° |
| 2026-05-07 18:07 | 51.47171 | -0.48358 | 94 ft | 12 kts | 180° |
| 2026-05-07 18:07 | 51.47086 | -0.48357 | 93 ft | 12 kts | 179° |
| 2026-05-07 18:07 | 51.46997 | -0.48356 | 93 ft | 13 kts | 179° |
| 2026-05-07 18:08 | 51.46906 | -0.48355 | 93 ft | 13 kts | 180° |
| 2026-05-07 18:08 | 51.46833 | -0.48356 | 93 ft | 0 kts | 180° |
| 2026-05-07 18:09 | 51.46830 | -0.48356 | 93 ft | 1 kts | 180° |
| 2026-05-07 18:09 | 51.46798 | -0.48357 | 93 ft | 6 kts | 183° |
| 2026-05-07 18:09 | 51.46762 | -0.48390 | 94 ft | 8 kts | 226° |
| 2026-05-07 18:09 | 51.46742 | -0.48489 | 91 ft | 11 kts | 265° |
| 2026-05-07 18:10 | 51.46738 | -0.48638 | 90 ft | 15 kts | 264° |
| 2026-05-07 18:10 | 51.46673 | -0.48741 | 93 ft | 14 kts | 194° |
| 2026-05-07 18:10 | 51.46618 | -0.48761 | 94 ft | 0 kts | 194° |
| 2026-05-07 18:11 | 51.46615 | -0.48762 | 94 ft | 3 kts | 194° |
| 2026-05-07 18:11 | 51.46561 | -0.48783 | 93 ft | 12 kts | 185° |
| 2026-05-07 18:11 | 51.46488 | -0.48706 | 96 ft | 15 kts | 115° |
| 2026-05-07 18:12 | 51.46480 | -0.48501 | 92 ft | 25 kts | 89° |
| 2026-05-07 18:12 | 51.46479 | -0.47962 | 89 ft | 72 kts | 90° |
| 2026-05-07 18:12 | 51.46484 | -0.46917 | 95 ft | 112 kts | 90° |
| 2026-05-07 18:12 | 51.46488 | -0.45477 | 90 ft | 148 kts | 90° |
| 2026-05-07 18:13 | 51.46495 | -0.43694 | 199 ft | 166 kts | 90° |
| 2026-05-07 18:13 | 51.46545 | -0.41920 | 629 ft | 156 kts | 81° |
| 2026-05-07 18:13 | 51.47054 | -0.40341 | 819 ft | 164 kts | 51° |
| 2026-05-07 18:13 | 51.47860 | -0.39059 | 1113 ft | 167 kts | 45° |
| 2026-05-07 18:14 | 51.48735 | -0.37718 | 1279 ft | 178 kts | 46° |
| 2026-05-07 18:14 | 51.49622 | -0.36293 | 1420 ft | 188 kts | 47° |
| 2026-05-07 18:14 | 51.50562 | -0.34738 | 1609 ft | 199 kts | 47° |
| 2026-05-07 18:14 | 51.51509 | -0.33007 | 1749 ft | 214 kts | 59° |
| 2026-05-07 18:15 | 51.52160 | -0.30763 | 1852 ft | 228 kts | 72° |
| 2026-05-07 18:15 | 51.52689 | -0.28284 | 2061 ft | 241 kts | 73° |
| 2026-05-07 18:15 | 51.53234 | -0.25677 | 2380 ft | 251 kts | 73° |
| 2026-05-07 18:15 | 51.53797 | -0.23023 | 2779 ft | 256 kts | 72° |
| 2026-05-07 18:16 | 51.54476 | -0.20352 | 3202 ft | 262 kts | 60° |
| 2026-05-07 18:16 | 51.55734 | -0.18233 | 3583 ft | 267 kts | 30° |
| 2026-05-07 18:16 | 51.57499 | -0.17383 | 4018 ft | 268 kts | 0° |
| 2026-05-07 18:16 | 51.59305 | -0.18025 | 4454 ft | 268 kts | 331° |
| 2026-05-07 18:17 | 51.60688 | -0.19971 | 4888 ft | 267 kts | 303° |
| 2026-05-07 18:17 | 51.61597 | -0.22569 | 5378 ft | 267 kts | 301° |
| 2026-05-07 18:17 | 51.62850 | -0.24787 | 5780 ft | 270 kts | 322° |
| 2026-05-07 18:17 | 51.64427 | -0.26461 | 6001 ft | 273 kts | 328° |
| 2026-05-07 18:18 | 51.66064 | -0.28023 | 6031 ft | 273 kts | 329° |
| 2026-05-07 18:18 | 51.67702 | -0.29570 | 6144 ft | 273 kts | 329° |
| 2026-05-07 18:18 | 51.69350 | -0.31132 | 6510 ft | 275 kts | 329° |
| 2026-05-07 18:18 | 51.70998 | -0.32701 | 7003 ft | 276 kts | 328° |
| 2026-05-07 18:19 | 51.72654 | -0.34286 | 7475 ft | 278 kts | 328° |
| 2026-05-07 18:19 | 51.74325 | -0.35894 | 7952 ft | 281 kts | 328° |
| 2026-05-07 18:19 | 51.76011 | -0.37525 | 8424 ft | 283 kts | 327° |
| 2026-05-07 18:19 | 51.77705 | -0.39167 | 8914 ft | 286 kts | 328° |
| 2026-05-07 18:20 | 51.79424 | -0.40832 | 9364 ft | 288 kts | 328° |
| 2026-05-07 18:20 | 51.81150 | -0.42507 | 9863 ft | 291 kts | 327° |
| 2026-05-07 18:20 | 51.82901 | -0.44205 | 10237 ft | 297 kts | 327° |
| 2026-05-07 18:20 | 51.84706 | -0.45960 | 10440 ft | 309 kts | 327° |
| 2026-05-07 18:21 | 51.86588 | -0.47790 | 10641 ft | 322 kts | 327° |
| 2026-05-07 18:21 | 51.88546 | -0.49692 | 10849 ft | 334 kts | 328° |
| 2026-05-07 18:21 | 51.90575 | -0.51666 | 11051 ft | 346 kts | 328° |
| 2026-05-07 18:21 | 51.92676 | -0.53713 | 11260 ft | 357 kts | 327° |
| 2026-05-07 18:22 | 51.94834 | -0.55819 | 11465 ft | 368 kts | 327° |
| 2026-05-07 18:22 | 51.96304 | -0.57255 | 11600 ft | 375 kts | 327° |
| 2026-05-07 18:22 | 51.99350 | -0.60231 | 11875 ft | 388 kts | 327° |
| 2026-05-07 18:22 | 52.01681 | -0.62512 | 12228 ft | 393 kts | 327° |
| 2026-05-07 18:23 | 52.04034 | -0.64815 | 12616 ft | 397 kts | 327° |
| 2026-05-07 18:23 | 52.06415 | -0.67149 | 13005 ft | 400 kts | 327° |
| 2026-05-07 18:23 | 52.08811 | -0.69503 | 13401 ft | 404 kts | 327° |
| 2026-05-07 18:23 | 52.11220 | -0.71873 | 13808 ft | 407 kts | 327° |
| 2026-05-07 18:24 | 52.13653 | -0.74269 | 14177 ft | 409 kts | 327° |
| 2026-05-07 18:24 | 52.16088 | -0.76670 | 14587 ft | 411 kts | 327° |
| 2026-05-07 18:24 | 52.18548 | -0.79100 | 15007 ft | 412 kts | 327° |
| 2026-05-07 18:24 | 52.21033 | -0.81558 | 15423 ft | 414 kts | 327° |
| 2026-05-07 18:25 | 52.23497 | -0.83997 | 15829 ft | 416 kts | 327° |
| 2026-05-07 18:25 | 52.25976 | -0.86455 | 16246 ft | 417 kts | 327° |
| 2026-05-07 18:25 | 52.28437 | -0.88899 | 16665 ft | 419 kts | 327° |
| 2026-05-07 18:25 | 52.30934 | -0.91381 | 17080 ft | 421 kts | 327° |
| 2026-05-07 18:26 | 52.33446 | -0.93883 | 17496 ft | 423 kts | 327° |
| 2026-05-07 18:26 | 52.35965 | -0.96395 | 17912 ft | 425 kts | 327° |
| 2026-05-07 18:26 | 52.38495 | -0.98922 | 18323 ft | 427 kts | 327° |
| 2026-05-07 18:26 | 52.41036 | -1.01463 | 18671 ft | 429 kts | 327° |
| 2026-05-07 18:27 | 52.43589 | -1.04018 | 19006 ft | 431 kts | 327° |
| 2026-05-07 18:27 | 52.46152 | -1.06588 | 19362 ft | 433 kts | 327° |
| 2026-05-07 18:27 | 52.48728 | -1.09172 | 19720 ft | 435 kts | 327° |
| 2026-05-07 18:27 | 52.50427 | -1.10879 | 19966 ft | 436 kts | 327° |
| 2026-05-07 18:28 | 52.53902 | -1.14376 | 20441 ft | 438 kts | 327° |
| 2026-05-07 18:28 | 52.56510 | -1.17003 | 20812 ft | 440 kts | 326° |
| 2026-05-07 18:28 | 52.59126 | -1.19641 | 21185 ft | 442 kts | 326° |
| 2026-05-07 18:28 | 52.61746 | -1.22287 | 21541 ft | 444 kts | 326° |
| 2026-05-07 18:29 | 52.64388 | -1.24961 | 21912 ft | 446 kts | 326° |
| 2026-05-07 18:29 | 52.67041 | -1.27649 | 22270 ft | 448 kts | 326° |
| 2026-05-07 18:29 | 52.69708 | -1.30356 | 22638 ft | 451 kts | 326° |
| 2026-05-07 18:29 | 52.72380 | -1.33072 | 22995 ft | 453 kts | 326° |
| 2026-05-07 18:30 | 52.75072 | -1.35814 | 23365 ft | 455 kts | 326° |
| 2026-05-07 18:30 | 52.77773 | -1.38569 | 23683 ft | 457 kts | 326° |
| 2026-05-07 18:30 | 52.80488 | -1.41342 | 23968 ft | 460 kts | 326° |
| 2026-05-07 18:30 | 52.83224 | -1.44141 | 24230 ft | 462 kts | 326° |
| 2026-05-07 18:31 | 52.85965 | -1.46950 | 24513 ft | 464 kts | 326° |
| 2026-05-07 18:31 | 52.88681 | -1.49737 | 24777 ft | 466 kts | 326° |
| 2026-05-07 18:31 | 52.91446 | -1.52578 | 25037 ft | 469 kts | 326° |
| 2026-05-07 18:31 | 52.94257 | -1.55472 | 25308 ft | 471 kts | 326° |
| 2026-05-07 18:32 | 52.97010 | -1.58309 | 25583 ft | 473 kts | 326° |
| 2026-05-07 18:32 | 52.99809 | -1.61200 | 25846 ft | 475 kts | 326° |
| 2026-05-07 18:32 | 53.02625 | -1.64108 | 26113 ft | 477 kts | 327° |
| 2026-05-07 18:32 | 53.05557 | -1.66757 | 26358 ft | 481 kts | 334° |
| 2026-05-07 18:33 | 53.08653 | -1.68953 | 26622 ft | 484 kts | 336° |
| 2026-05-07 18:33 | 53.11792 | -1.71013 | 26870 ft | 486 kts | 338° |
| 2026-05-07 18:33 | 53.14967 | -1.73009 | 27112 ft | 489 kts | 338° |
| 2026-05-07 18:33 | 53.18162 | -1.74977 | 27338 ft | 491 kts | 338° |
| 2026-05-07 18:34 | 53.21371 | -1.76943 | 27584 ft | 493 kts | 339° |
| 2026-05-07 18:34 | 53.24599 | -1.78927 | 27803 ft | 495 kts | 338° |
| 2026-05-07 18:34 | 53.27842 | -1.80932 | 28036 ft | 497 kts | 338° |
| 2026-05-07 18:34 | 53.31091 | -1.82952 | 28265 ft | 499 kts | 338° |
| 2026-05-07 18:35 | 53.34356 | -1.84992 | 28474 ft | 502 kts | 338° |
| 2026-05-07 18:35 | 53.37633 | -1.87045 | 28677 ft | 504 kts | 338° |
| 2026-05-07 18:35 | 53.40911 | -1.89104 | 28933 ft | 504 kts | 338° |
| 2026-05-07 18:35 | 53.44201 | -1.91173 | 29253 ft | 504 kts | 338° |
| 2026-05-07 18:36 | 53.47483 | -1.93241 | 29544 ft | 504 kts | 338° |
| 2026-05-07 18:36 | 53.50766 | -1.95312 | 29835 ft | 504 kts | 338° |
| 2026-05-07 18:36 | 53.54048 | -1.97387 | 30098 ft | 504 kts | 338° |
| 2026-05-07 18:36 | 53.57333 | -1.99467 | 30335 ft | 504 kts | 338° |
| 2026-05-07 18:37 | 53.60618 | -2.01550 | 30570 ft | 504 kts | 338° |
| 2026-05-07 18:37 | 53.63859 | -2.03609 | 30787 ft | 504 kts | 338° |
| 2026-05-07 18:37 | 53.67177 | -2.05720 | 31008 ft | 504 kts | 338° |
| 2026-05-07 18:37 | 53.70464 | -2.07814 | 31216 ft | 504 kts | 338° |
| 2026-05-07 18:38 | 53.73701 | -2.09881 | 31423 ft | 504 kts | 338° |
| 2026-05-07 18:38 | 53.76966 | -2.12021 | 31589 ft | 504 kts | 337° |
| 2026-05-07 18:38 | 53.80220 | -2.14220 | 31797 ft | 504 kts | 337° |
| 2026-05-07 18:38 | 53.83473 | -2.16451 | 31989 ft | 503 kts | 337° |
| 2026-05-07 18:39 | 53.86720 | -2.18690 | 32165 ft | 504 kts | 337° |
| 2026-05-07 18:39 | 53.89963 | -2.20928 | 32301 ft | 504 kts | 337° |
| 2026-05-07 18:39 | 53.93217 | -2.23171 | 32469 ft | 504 kts | 337° |
| 2026-05-07 18:39 | 53.96465 | -2.25408 | 32630 ft | 504 kts | 337° |
| 2026-05-07 18:40 | 53.99709 | -2.27668 | 32775 ft | 504 kts | 335° |
| 2026-05-07 18:40 | 54.02834 | -2.30381 | 32891 ft | 504 kts | 329° |
| 2026-05-07 18:40 | 54.05865 | -2.33381 | 33034 ft | 503 kts | 328° |
| 2026-05-07 18:40 | 54.08865 | -2.36459 | 33162 ft | 504 kts | 327° |
| 2026-05-07 18:41 | 54.11853 | -2.39589 | 33279 ft | 504 kts | 327° |
| 2026-05-07 18:41 | 54.16811 | -2.44839 | 33506 ft | 505 kts | 327° |
| 2026-05-07 18:41 | 54.19796 | -2.48008 | 33636 ft | 505 kts | 327° |
| 2026-05-07 18:42 | 54.22776 | -2.51169 | 33742 ft | 505 kts | 327° |
| 2026-05-07 18:42 | 54.28756 | -2.57512 | 33950 ft | 506 kts | 327° |
| 2026-05-07 18:43 | 54.34752 | -2.63883 | 34005 ft | 506 kts | 326° |
| 2026-05-07 18:43 | 54.40736 | -2.70261 | 34001 ft | 506 kts | 326° |
| 2026-05-07 18:44 | 54.46722 | -2.76664 | 33991 ft | 507 kts | 326° |
| 2026-05-07 18:44 | 54.52663 | -2.83043 | 33993 ft | 507 kts | 326° |
| 2026-05-07 18:45 | 54.58648 | -2.89490 | 33990 ft | 507 kts | 326° |
| 2026-05-07 18:45 | 54.64640 | -2.95968 | 33985 ft | 508 kts | 326° |
| 2026-05-07 18:46 | 54.70628 | -3.02465 | 33980 ft | 508 kts | 326° |
| 2026-05-07 18:46 | 54.76622 | -3.08993 | 33978 ft | 509 kts | 326° |
| 2026-05-07 18:47 | 54.82620 | -3.15546 | 33978 ft | 509 kts | 326° |
| 2026-05-07 18:47 | 54.88621 | -3.22127 | 33978 ft | 510 kts | 325° |
| 2026-05-07 18:48 | 54.94579 | -3.28682 | 33981 ft | 510 kts | 325° |
| 2026-05-07 18:48 | 55.00609 | -3.35342 | 33976 ft | 510 kts | 325° |
| 2026-05-07 18:49 | 55.06569 | -3.41948 | 33976 ft | 511 kts | 325° |
| 2026-05-07 18:49 | 55.12565 | -3.48619 | 33974 ft | 511 kts | 325° |
| 2026-05-07 18:50 | 55.18566 | -3.55319 | 33973 ft | 512 kts | 324° |
| 2026-05-07 18:50 | 55.24556 | -3.62031 | 33971 ft | 512 kts | 324° |
| 2026-05-07 18:51 | 55.30558 | -3.68781 | 33967 ft | 512 kts | 324° |
| 2026-05-07 18:51 | 55.36560 | -3.75554 | 33964 ft | 512 kts | 324° |
| 2026-05-07 18:52 | 55.42549 | -3.82339 | 33959 ft | 513 kts | 324° |
| 2026-05-07 18:52 | 55.48558 | -3.89170 | 33953 ft | 513 kts | 324° |
| 2026-05-07 18:53 | 55.55041 | -3.94516 | 33951 ft | 519 kts | 342° |
| 2026-05-07 18:53 | 55.62100 | -3.97301 | 33947 ft | 521 kts | 348° |
| 2026-05-07 18:54 | 55.69246 | -3.99582 | 33942 ft | 522 kts | 348° |
| 2026-05-07 18:54 | 55.76411 | -4.01819 | 33938 ft | 522 kts | 348° |
| 2026-05-07 18:55 | 55.83576 | -4.04118 | 33938 ft | 522 kts | 348° |
| 2026-05-07 18:55 | 55.90687 | -4.06442 | 33936 ft | 523 kts | 348° |
| 2026-05-07 18:56 | 55.97846 | -4.08800 | 33934 ft | 523 kts | 347° |
| 2026-05-07 18:56 | 56.05005 | -4.11166 | 33933 ft | 523 kts | 347° |
| 2026-05-07 18:57 | 56.12167 | -4.13539 | 33925 ft | 523 kts | 347° |
| 2026-05-07 18:57 | 56.19329 | -4.15921 | 33928 ft | 524 kts | 347° |
| 2026-05-07 18:58 | 56.26508 | -4.18318 | 33927 ft | 524 kts | 347° |
| 2026-05-07 18:58 | 56.33689 | -4.20724 | 33931 ft | 524 kts | 347° |
| 2026-05-07 18:59 | 56.40868 | -4.23139 | 33916 ft | 525 kts | 347° |
| 2026-05-07 18:59 | 56.48009 | -4.25549 | 33924 ft | 525 kts | 347° |
| 2026-05-07 19:00 | 56.55197 | -4.27985 | 33907 ft | 525 kts | 347° |
| 2026-05-07 19:00 | 56.62387 | -4.30433 | 33916 ft | 525 kts | 347° |
| 2026-05-07 19:01 | 56.69579 | -4.32890 | 33904 ft | 526 kts | 347° |
| 2026-05-07 19:01 | 56.76773 | -4.35357 | 34075 ft | 525 kts | 346° |
| 2026-05-07 19:01 | 56.80358 | -4.36589 | 34235 ft | 523 kts | 346° |
| 2026-05-07 19:02 | 56.83937 | -4.37822 | 34357 ft | 523 kts | 346° |
| 2026-05-07 19:02 | 56.87511 | -4.39056 | 34474 ft | 522 kts | 346° |
| 2026-05-07 19:02 | 56.91077 | -4.40290 | 34594 ft | 521 kts | 346° |
| 2026-05-07 19:03 | 56.98196 | -4.42760 | 34739 ft | 521 kts | 346° |
| 2026-05-07 19:03 | 57.05311 | -4.45237 | 34933 ft | 519 kts | 346° |
| 2026-05-07 19:03 | 57.08863 | -4.46477 | 35078 ft | 518 kts | 346° |
| 2026-05-07 19:04 | 57.12401 | -4.47715 | 35166 ft | 517 kts | 346° |
| 2026-05-07 19:04 | 57.19476 | -4.50198 | 35267 ft | 518 kts | 346° |
| 2026-05-07 19:05 | 57.26500 | -4.52674 | 35424 ft | 516 kts | 346° |
| 2026-05-07 19:05 | 57.33548 | -4.55168 | 35559 ft | 515 kts | 346° |
| 2026-05-07 19:06 | 57.40589 | -4.57670 | 35676 ft | 515 kts | 346° |
| 2026-05-07 19:06 | 57.51146 | -4.61437 | 35826 ft | 514 kts | 346° |
| 2026-05-07 19:07 | 57.58175 | -4.63958 | 35846 ft | 515 kts | 345° |
| 2026-05-07 19:07 | 57.65235 | -4.66504 | 35839 ft | 518 kts | 345° |
| 2026-05-07 19:08 | 57.72325 | -4.69071 | 35836 ft | 520 kts | 345° |
| 2026-05-07 19:08 | 57.79431 | -4.71648 | 35833 ft | 521 kts | 345° |
| 2026-05-07 19:09 | 57.86552 | -4.74239 | 35830 ft | 521 kts | 345° |
| 2026-05-07 19:09 | 57.93666 | -4.76840 | 35827 ft | 521 kts | 345° |
| 2026-05-07 19:10 | 58.00782 | -4.79454 | 35826 ft | 521 kts | 345° |
| 2026-05-07 19:10 | 58.07860 | -4.82064 | 35820 ft | 522 kts | 345° |
| 2026-05-07 19:11 | 58.14981 | -4.84702 | 35814 ft | 522 kts | 345° |
| 2026-05-07 19:11 | 58.22127 | -4.87361 | 35812 ft | 523 kts | 345° |
| 2026-05-07 19:12 | 58.29287 | -4.90035 | 35807 ft | 523 kts | 345° |
| 2026-05-07 19:12 | 58.36440 | -4.92717 | 35806 ft | 524 kts | 345° |
| 2026-05-07 19:13 | 58.43600 | -4.95412 | 35803 ft | 525 kts | 345° |
| 2026-05-07 19:13 | 58.50760 | -4.98118 | 35797 ft | 525 kts | 345° |
| 2026-05-07 19:14 | 58.57932 | -5.00841 | 35791 ft | 525 kts | 344° |
| 2026-05-07 19:14 | 58.65068 | -5.03562 | 35794 ft | 525 kts | 344° |
| 2026-05-07 19:15 | 58.72245 | -5.06309 | 35786 ft | 526 kts | 344° |
| 2026-05-07 19:15 | 58.79423 | -5.09068 | 35779 ft | 526 kts | 344° |
| 2026-05-07 19:16 | 58.86603 | -5.11839 | 35775 ft | 526 kts | 344° |
| 2026-05-07 19:16 | 58.93774 | -5.14619 | 35775 ft | 526 kts | 344° |
| 2026-05-07 19:17 | 59.00953 | -5.17415 | 35771 ft | 526 kts | 344° |
| 2026-05-07 19:17 | 59.08081 | -5.20202 | 35767 ft | 526 kts | 344° |
| 2026-05-07 19:18 | 59.15292 | -5.23033 | 35762 ft | 526 kts | 344° |
| 2026-05-07 19:18 | 59.22420 | -5.25843 | 35759 ft | 525 kts | 344° |
| 2026-05-07 19:19 | 59.29597 | -5.28687 | 35755 ft | 525 kts | 344° |